sensor_id;sensor_type;location;lat;lon;timestamp;pressure;altitude;pressure_sealevel;temperature;humidity
65760;BME280;52496;51.082;5.066;2022-11-15T00:01:11;100750.97;;;9.32;100.00
65760;BME280;52496;51.082;5.066;2022-11-15T00:03:45;100746.47;;;9.32;100.00
65760;BME280;52496;51.082;5.066;2022-11-15T00:06:26;100755.94;;;9.35;100.00
65760;BME280;52496;51.082;5.066;2022-11-15T00:09:00;100751.25;;;9.37;100.00
65760;BME280;52496;51.082;5.066;2022-11-15T00:11:42;100759.91;;;9.39;100.00
65760;BME280;52496;51.082;5.066;2022-11-15T00:14:13;100763.25;;;9.41;100.00
65760;BME280;52496;51.082;5.066;2022-11-15T00:16:44;100753.19;;;9.43;100.00
65760;BME280;52496;51.082;5.066;2022-11-15T00:19:15;100759.19;;;9.45;100.00
65760;BME280;52496;51.082;5.066;2022-11-15T00:21:45;100755.50;;;9.46;100.00
65760;BME280;52496;51.082;5.066;2022-11-15T00:24:16;100756.84;;;9.50;100.00
65760;BME280;52496;51.082;5.066;2022-11-15T00:26:50;100754.78;;;9.52;100.00
65760;BME280;52496;51.082;5.066;2022-11-15T00:29:20;100761.63;;;9.55;100.00
65760;BME280;52496;51.082;5.066;2022-11-15T00:31:52;100752.41;;;9.57;100.00
65760;BME280;52496;51.082;5.066;2022-11-15T00:34:22;100757.41;;;9.60;100.00
65760;BME280;52496;51.082;5.066;2022-11-15T00:36:54;100756.22;;;9.63;100.00
65760;BME280;52496;51.082;5.066;2022-11-15T00:39:24;100742.66;;;9.64;100.00
65760;BME280;52496;51.082;5.066;2022-11-15T00:41:57;100747.66;;;9.68;100.00
65760;BME280;52496;51.082;5.066;2022-11-15T00:44:27;100741.94;;;9.71;100.00
65760;BME280;52496;51.082;5.066;2022-11-15T00:46:59;100746.94;;;9.74;100.00
65760;BME280;52496;51.082;5.066;2022-11-15T00:49:29;100740.41;;;9.76;100.00
65760;BME280;52496;51.082;5.066;2022-11-15T00:52:00;100741.06;;;9.78;100.00
65760;BME280;52496;51.082;5.066;2022-11-15T00:54:30;100744.19;;;9.82;100.00
65760;BME280;52496;51.082;5.066;2022-11-15T00:57:01;100737.66;;;9.84;100.00
65760;BME280;52496;51.082;5.066;2022-11-15T00:59:31;100738.13;;;9.88;100.00
65760;BME280;52496;51.082;5.066;2022-11-15T01:02:02;100739.59;;;9.91;100.00
65760;BME280;52496;51.082;5.066;2022-11-15T01:04:32;100742.94;;;9.93;100.00
65760;BME280;52496;51.082;5.066;2022-11-15T01:07:03;100738.69;;;9.98;100.00
65760;BME280;52496;51.082;5.066;2022-11-15T01:09:33;100748.00;;;10.02;100.00
65760;BME280;52496;51.082;5.066;2022-11-15T01:12:04;100744.97;;;10.05;100.00
65760;BME280;52496;51.082;5.066;2022-11-15T01:14:35;100743.78;;;10.08;100.00
65760;BME280;52496;51.082;5.066;2022-11-15T01:17:05;100734.34;;;10.12;100.00
65760;BME280;52496;51.082;5.066;2022-11-15T01:19:36;100734.81;;;10.16;100.00
65760;BME280;52496;51.082;5.066;2022-11-15T01:22:06;100726.63;;;10.17;100.00
65760;BME280;52496;51.082;5.066;2022-11-15T01:24:37;100731.59;;;10.20;100.00
65760;BME280;52496;51.082;5.066;2022-11-15T01:27:08;100730.41;;;10.23;100.00
65760;BME280;52496;51.082;5.066;2022-11-15T01:29:38;100729.19;;;10.25;100.00
65760;BME280;52496;51.082;5.066;2022-11-15T01:32:09;100735.06;;;10.29;100.00
65760;BME280;52496;51.082;5.066;2022-11-15T01:34:39;100732.84;;;10.32;100.00
65760;BME280;52496;51.082;5.066;2022-11-15T01:37:10;100735.31;;;10.34;100.00
65760;BME280;52496;51.082;5.066;2022-11-15T01:39:41;100729.78;;;10.36;100.00
65760;BME280;52496;51.082;5.066;2022-11-15T01:42:14;100720.56;;;10.38;100.00
65760;BME280;52496;51.082;5.066;2022-11-15T01:44:50;100725.72;;;10.40;100.00
65760;BME280;52496;51.082;5.066;2022-11-15T01:47:31;100719.19;;;10.42;100.00
65760;BME280;52496;51.082;5.066;2022-11-15T01:50:10;100714.66;;;10.43;100.00
65760;BME280;52496;51.082;5.066;2022-11-15T01:52:42;100721.47;;;10.45;100.00
65760;BME280;52496;51.082;5.066;2022-11-15T01:55:21;100715.09;;;10.46;100.00
65760;BME280;52496;51.082;5.066;2022-11-15T01:57:58;100713.09;;;10.48;100.00
65760;BME280;52496;51.082;5.066;2022-11-15T02:00:30;100706.53;;;10.51;100.00
65760;BME280;52496;51.082;5.066;2022-11-15T02:03:04;100705.34;;;10.53;100.00
65760;BME280;52496;51.082;5.066;2022-11-15T02:05:36;100710.31;;;10.56;100.00
65760;BME280;52496;51.082;5.066;2022-11-15T02:08:08;100706.63;;;10.57;100.00
65760;BME280;52496;51.082;5.066;2022-11-15T02:10:49;100706.63;;;10.57;100.00
65760;BME280;52496;51.082;5.066;2022-11-15T02:13:20;100705.59;;;10.59;100.00
65760;BME280;52496;51.082;5.066;2022-11-15T02:18:36;100701.16;;;10.66;100.00
65760;BME280;52496;51.082;5.066;2022-11-15T02:21:28;100695.44;;;10.69;100.00
65760;BME280;52496;51.082;5.066;2022-11-15T02:36:05;100675.56;;;10.78;100.00
65760;BME280;52496;51.082;5.066;2022-11-15T02:38:40;100680.56;;;10.81;100.00
65760;BME280;52496;51.082;5.066;2022-11-15T02:41:20;100676.84;;;10.82;100.00
65760;BME280;52496;51.082;5.066;2022-11-15T02:46:51;100674.81;;;10.84;100.00
65760;BME280;52496;51.082;5.066;2022-11-15T02:49:52;100666.59;;;10.86;100.00
65760;BME280;52496;51.082;5.066;2022-11-15T02:52:24;100661.88;;;10.88;100.00
65760;BME280;52496;51.082;5.066;2022-11-15T02:55:00;100661.69;;;10.89;100.00
65760;BME280;52496;51.082;5.066;2022-11-15T03:00:15;100653.47;;;10.91;100.00
65760;BME280;52496;51.082;5.066;2022-11-15T03:06:25;100648.94;;;10.91;100.00
65760;BME280;52496;51.082;5.066;2022-11-15T03:08:57;100646.28;;;10.91;100.00
65760;BME280;52496;51.082;5.066;2022-11-15T03:11:37;100640.09;;;10.91;100.00
65760;BME280;52496;51.082;5.066;2022-11-15T03:19:57;100641.56;;;10.93;100.00
65760;BME280;52496;51.082;5.066;2022-11-15T03:22:33;100640.75;;;10.93;100.00
65760;BME280;52496;51.082;5.066;2022-11-15T03:25:07;100643.22;;;10.94;100.00
65760;BME280;52496;51.082;5.066;2022-11-15T03:27:43;100638.69;;;10.95;100.00
65760;BME280;52496;51.082;5.066;2022-11-15T03:30:14;100642.84;;;10.97;100.00
65760;BME280;52496;51.082;5.066;2022-11-15T03:32:55;100641.19;;;10.96;100.00
65760;BME280;52496;51.082;5.066;2022-11-15T03:35:33;100644.69;;;10.97;100.00
65760;BME280;52496;51.082;5.066;2022-11-15T03:38:13;100641.81;;;10.98;100.00
65760;BME280;52496;51.082;5.066;2022-11-15T03:40:51;100637.47;;;10.97;100.00
65760;BME280;52496;51.082;5.066;2022-11-15T03:43:47;100648.19;;;10.97;100.00
65760;BME280;52496;51.082;5.066;2022-11-15T03:46:26;100645.34;;;10.99;100.00
65760;BME280;52496;51.082;5.066;2022-11-15T03:49:12;100653.16;;;11.00;100.00
65760;BME280;52496;51.082;5.066;2022-11-15T03:51:44;100645.94;;;11.01;100.00
65760;BME280;52496;51.082;5.066;2022-11-15T03:54:15;100645.78;;;11.02;100.00
65760;BME280;52496;51.082;5.066;2022-11-15T03:56:45;100648.25;;;11.04;100.00
65760;BME280;52496;51.082;5.066;2022-11-15T03:59:16;100639.38;;;11.03;100.00
65760;BME280;52496;51.082;5.066;2022-11-15T04:01:47;100639.38;;;11.03;100.00
65760;BME280;52496;51.082;5.066;2022-11-15T04:04:17;100645.38;;;11.06;100.00
65760;BME280;52496;51.082;5.066;2022-11-15T04:06:47;100643.72;;;11.05;100.00
65760;BME280;52496;51.082;5.066;2022-11-15T04:09:18;100645.38;;;11.06;100.00
65760;BME280;52496;51.082;5.066;2022-11-15T04:11:49;100641.69;;;11.07;100.00
65760;BME280;52496;51.082;5.066;2022-11-15T04:14:19;100645.38;;;11.06;100.00
65760;BME280;52496;51.082;5.066;2022-11-15T04:16:50;100638.34;;;11.05;100.00
65760;BME280;52496;51.082;5.066;2022-11-15T04:19:21;100638.34;;;11.05;100.00
65760;BME280;52496;51.082;5.066;2022-11-15T04:22:09;100636.72;;;11.03;100.00
65760;BME280;52496;51.082;5.066;2022-11-15T04:24:59;100647.41;;;11.03;100.00
65760;BME280;52496;51.082;5.066;2022-11-15T04:27:29;100647.41;;;11.03;100.00
65760;BME280;52496;51.082;5.066;2022-11-15T04:30:00;100643.72;;;11.05;100.00
65760;BME280;52496;51.082;5.066;2022-11-15T04:32:30;100643.72;;;11.05;100.00
65760;BME280;52496;51.082;5.066;2022-11-15T04:35:01;100644.34;;;11.07;100.00
65760;BME280;52496;51.082;5.066;2022-11-15T04:37:31;100644.34;;;11.07;100.00
65760;BME280;52496;51.082;5.066;2022-11-15T04:40:02;100644.19;;;11.08;100.00
65760;BME280;52496;51.082;5.066;2022-11-15T04:42:33;100639.66;;;11.09;100.00
65760;BME280;52496;51.082;5.066;2022-11-15T04:45:03;100645.81;;;11.09;100.00
65760;BME280;52496;51.082;5.066;2022-11-15T04:47:34;100653.66;;;11.11;100.00
65760;BME280;52496;51.082;5.066;2022-11-15T04:50:05;100652.00;;;11.10;100.00
65760;BME280;52496;51.082;5.066;2022-11-15T04:52:35;100647.28;;;11.12;100.00
65760;BME280;52496;51.082;5.066;2022-11-15T04:55:06;100651.63;;;11.13;100.00
65760;BME280;52496;51.082;5.066;2022-11-15T04:57:37;100649.97;;;11.12;100.00
65760;BME280;52496;51.082;5.066;2022-11-15T05:00:12;100642.75;;;11.12;100.00
65760;BME280;52496;51.082;5.066;2022-11-15T05:02:43;100649.97;;;11.12;100.00
65760;BME280;52496;51.082;5.066;2022-11-15T05:05:32;100648.28;;;11.11;100.00
65760;BME280;52496;51.082;5.066;2022-11-15T05:08:03;100653.66;;;11.11;100.00
65760;BME280;52496;51.082;5.066;2022-11-15T05:10:33;100651.19;;;11.09;100.00
65760;BME280;52496;51.082;5.066;2022-11-15T05:13:04;100649.53;;;11.08;100.00
65760;BME280;52496;51.082;5.066;2022-11-15T05:15:35;100643.31;;;11.08;100.00
65760;BME280;52496;51.082;5.066;2022-11-15T05:18:05;100641.03;;;11.05;100.00
65760;BME280;52496;51.082;5.066;2022-11-15T05:20:36;100645.78;;;11.02;100.00
65760;BME280;52496;51.082;5.066;2022-11-15T05:23:06;100649.44;;;11.01;100.00
65760;BME280;52496;51.082;5.066;2022-11-15T05:25:37;100647.81;;;11.00;100.00
65760;BME280;52496;51.082;5.066;2022-11-15T05:28:07;100643.47;;;10.99;100.00
65760;BME280;52496;51.082;5.066;2022-11-15T05:30:38;100642.84;;;10.97;100.00
65760;BME280;52496;51.082;5.066;2022-11-15T05:33:08;100642.19;;;10.95;100.00
65760;BME280;52496;51.082;5.066;2022-11-15T05:35:43;100645.06;;;10.94;100.00
65760;BME280;52496;51.082;5.066;2022-11-15T05:38:16;100654.31;;;10.91;100.00
65760;BME280;52496;51.082;5.066;2022-11-15T05:40:47;100654.31;;;10.91;100.00
65760;BME280;52496;51.082;5.066;2022-11-15T05:43:17;100650.97;;;10.89;100.00
65760;BME280;52496;51.082;5.066;2022-11-15T05:45:48;100650.53;;;10.86;100.00
65760;BME280;52496;51.082;5.066;2022-11-15T05:48:19;100657.09;;;10.83;100.00
65760;BME280;52496;51.082;5.066;2022-11-15T05:50:49;100659.16;;;10.81;100.00
65760;BME280;52496;51.082;5.066;2022-11-15T05:53:22;100659.16;;;10.81;100.00
65760;BME280;52496;51.082;5.066;2022-11-15T05:55:53;100655.81;;;10.79;100.00
65760;BME280;52496;51.082;5.066;2022-11-15T05:58:24;100658.72;;;10.77;100.00
65760;BME280;52496;51.082;5.066;2022-11-15T06:00:54;100661.56;;;10.76;100.00
65760;BME280;52496;51.082;5.066;2022-11-15T06:03:25;100667.13;;;10.74;100.00
65760;BME280;52496;51.082;5.066;2022-11-15T06:05:56;100664.81;;;10.71;100.00
65760;BME280;52496;51.082;5.066;2022-11-15T06:08:27;100655.31;;;10.69;100.00
65760;BME280;52496;51.082;5.066;2022-11-15T06:11:06;100656.31;;;10.68;100.00
65760;BME280;52496;51.082;5.066;2022-11-15T06:13:37;100668.03;;;10.67;100.00
65760;BME280;52496;51.082;5.066;2022-11-15T06:16:07;100666.41;;;10.66;100.00
65760;BME280;52496;51.082;5.066;2022-11-15T06:18:40;100661.22;;;10.64;100.00
65760;BME280;52496;51.082;5.066;2022-11-15T06:21:11;100657.06;;;10.62;100.00
65760;BME280;52496;51.082;5.066;2022-11-15T06:23:42;100661.81;;;10.60;100.00
65760;BME280;52496;51.082;5.066;2022-11-15T06:26:13;100667.16;;;10.60;100.00
65760;BME280;52496;51.082;5.066;2022-11-15T06:28:43;100664.84;;;10.56;100.00
65760;BME280;52496;51.082;5.066;2022-11-15T06:31:14;100678.22;;;10.56;100.00
65760;BME280;52496;51.082;5.066;2022-11-15T06:33:46;100669.56;;;10.54;100.00
65760;BME280;52496;51.082;5.066;2022-11-15T06:36:17;100672.44;;;10.53;100.00
65760;BME280;52496;51.082;5.066;2022-11-15T06:38:48;100665.59;;;10.50;100.00
65760;BME280;52496;51.082;5.066;2022-11-15T06:41:18;100677.31;;;10.49;100.00
65760;BME280;52496;51.082;5.066;2022-11-15T06:43:51;100677.69;;;10.46;100.00
65760;BME280;52496;51.082;5.066;2022-11-15T06:46:21;100677.44;;;10.41;100.00
65760;BME280;52496;51.082;5.066;2022-11-15T06:48:53;100684.16;;;10.37;100.00
65760;BME280;52496;51.082;5.066;2022-11-15T06:51:23;100689.03;;;10.33;100.00
65760;BME280;52496;51.082;5.066;2022-11-15T06:53:54;100688.59;;;10.30;100.00
65760;BME280;52496;51.082;5.066;2022-11-15T06:56:25;100685.25;;;10.28;100.00
65760;BME280;52496;51.082;5.066;2022-11-15T06:58:55;100692.63;;;10.26;100.00
65760;BME280;52496;51.082;5.066;2022-11-15T07:01:26;100686.34;;;10.19;100.00
65760;BME280;52496;51.082;5.066;2022-11-15T07:03:56;100685.44;;;10.11;100.00
65760;BME280;52496;51.082;5.066;2022-11-15T07:06:26;100682.47;;;10.06;100.00
65760;BME280;52496;51.082;5.066;2022-11-15T07:08:57;100685.28;;;9.98;100.00
65760;BME280;52496;51.082;5.066;2022-11-15T07:11:27;100688.03;;;9.90;100.00
65760;BME280;52496;51.082;5.066;2022-11-15T07:13:59;100691.44;;;9.84;100.00
65760;BME280;52496;51.082;5.066;2022-11-15T07:16:30;100677.13;;;9.77;100.00
65760;BME280;52496;51.082;5.066;2022-11-15T07:19:00;100677.84;;;9.71;100.00
65760;BME280;52496;51.082;5.066;2022-11-15T07:21:32;100688.91;;;9.68;100.00
65760;BME280;52496;51.082;5.066;2022-11-15T07:24:03;100690.28;;;9.63;100.00
65760;BME280;52496;51.082;5.066;2022-11-15T07:26:34;100693.03;;;9.55;100.00
65760;BME280;52496;51.082;5.066;2022-11-15T07:29:04;100703.09;;;9.53;100.00
65760;BME280;52496;51.082;5.066;2022-11-15T07:31:35;100695.59;;;9.49;100.00
65760;BME280;52496;51.082;5.066;2022-11-15T07:34:05;100705.81;;;9.45;100.00
65760;BME280;52496;51.082;5.066;2022-11-15T07:36:36;100702.84;;;9.40;100.00
65760;BME280;52496;51.082;5.066;2022-11-15T07:39:07;100711.88;;;9.39;100.00
65760;BME280;52496;51.082;5.066;2022-11-15T07:41:37;100710.22;;;9.38;100.00
65760;BME280;52496;51.082;5.066;2022-11-15T07:44:08;100711.22;;;9.37;100.00
65760;BME280;52496;51.082;5.066;2022-11-15T07:46:39;100702.22;;;9.38;100.00
65760;BME280;52496;51.082;5.066;2022-11-15T07:49:10;100705.88;;;9.37;100.00
65760;BME280;52496;51.082;5.066;2022-11-15T07:51:40;100710.38;;;9.36;100.00
65760;BME280;52496;51.082;5.066;2022-11-15T07:54:11;100708.53;;;9.37;100.00
65760;BME280;52496;51.082;5.066;2022-11-15T07:56:41;100701.56;;;9.36;100.00
65760;BME280;52496;51.082;5.066;2022-11-15T07:59:12;100698.22;;;9.34;100.00
65760;BME280;52496;51.082;5.066;2022-11-15T08:01:42;100699.09;;;9.34;100.00
65760;BME280;52496;51.082;5.066;2022-11-15T08:04:16;100697.41;;;9.33;100.00
65760;BME280;52496;51.082;5.066;2022-11-15T08:06:46;100694.72;;;9.33;100.00
65760;BME280;52496;51.082;5.066;2022-11-15T08:09:17;100694.56;;;9.35;100.00
65760;BME280;52496;51.082;5.066;2022-11-15T08:11:47;100694.56;;;9.35;100.00
65760;BME280;52496;51.082;5.066;2022-11-15T08:14:18;100689.88;;;9.37;100.00
65760;BME280;52496;51.082;5.066;2022-11-15T08:16:48;100699.34;;;9.39;100.00
65760;BME280;52496;51.082;5.066;2022-11-15T08:19:19;100699.00;;;9.42;100.00
65760;BME280;52496;51.082;5.066;2022-11-15T08:21:50;100688.63;;;9.48;100.00
65760;BME280;52496;51.082;5.066;2022-11-15T08:24:20;100688.72;;;9.54;100.00
65760;BME280;52496;51.082;5.066;2022-11-15T08:26:51;100686.34;;;9.59;100.00
65760;BME280;52496;51.082;5.066;2022-11-15T08:29:21;100685.59;;;9.65;100.00
65760;BME280;52496;51.082;5.066;2022-11-15T08:31:55;100676.03;;;9.71;100.00
65760;BME280;52496;51.082;5.066;2022-11-15T08:34:26;100681.66;;;9.76;100.00
65760;BME280;52496;51.082;5.066;2022-11-15T08:36:56;100669.41;;;9.82;100.00
65760;BME280;52496;51.082;5.066;2022-11-15T08:39:27;100662.88;;;9.84;100.00
65760;BME280;52496;51.082;5.066;2022-11-15T08:41:57;100656.78;;;9.91;100.00
65760;BME280;52496;51.082;5.066;2022-11-15T08:44:28;100654.03;;;9.99;100.00
65760;BME280;52496;51.082;5.066;2022-11-15T08:46:59;100646.94;;;10.06;100.00
65760;BME280;52496;51.082;5.066;2022-11-15T08:49:29;100640.47;;;10.15;100.00
65760;BME280;52496;51.082;5.066;2022-11-15T08:52:00;100637.25;;;10.20;100.00
65760;BME280;52496;51.082;5.066;2022-11-15T08:54:30;100644.19;;;10.29;100.00
65760;BME280;52496;51.082;5.066;2022-11-15T08:57:02;100643.06;;;10.38;100.00
65760;BME280;52496;51.082;5.066;2022-11-15T08:59:32;100631.41;;;10.46;100.00
65760;BME280;52496;51.082;5.066;2022-11-15T09:02:04;100637.47;;;10.54;100.00
65760;BME280;52496;51.082;5.066;2022-11-15T09:04:34;100626.84;;;10.61;100.00
65760;BME280;52496;51.082;5.066;2022-11-15T09:07:05;100618.50;;;10.71;100.00
65760;BME280;52496;51.082;5.066;2022-11-15T09:09:35;100618.38;;;10.79;100.00
65760;BME280;52496;51.082;5.066;2022-11-15T09:12:07;100623.34;;;10.82;100.00
65760;BME280;52496;51.082;5.066;2022-11-15T09:14:38;100621.31;;;10.84;100.00
65760;BME280;52496;51.082;5.066;2022-11-15T09:17:08;100623.22;;;10.90;100.00
65760;BME280;52496;51.082;5.066;2022-11-15T09:19:39;100625.97;;;10.97;100.00
65760;BME280;52496;51.082;5.066;2022-11-15T09:22:09;100623.72;;;11.00;100.00
65760;BME280;52496;51.082;5.066;2022-11-15T09:24:40;100624.22;;;11.11;100.00
65760;BME280;52496;51.082;5.066;2022-11-15T09:27:11;100618.28;;;11.15;100.00
65760;BME280;52496;51.082;5.066;2022-11-15T09:29:42;100615.47;;;11.23;100.00
65760;BME280;52496;51.082;5.066;2022-11-15T09:32:12;100612.84;;;11.30;100.00
65760;BME280;52496;51.082;5.066;2022-11-15T09:34:43;100614.34;;;11.39;100.00
65760;BME280;52496;51.082;5.066;2022-11-15T09:37:14;100611.53;;;11.47;100.00
65760;BME280;52496;51.082;5.066;2022-11-15T09:39:44;100615.72;;;11.57;100.00
65760;BME280;52496;51.082;5.066;2022-11-15T09:50:53;100615.97;;;11.68;99.85
65760;BME280;52496;51.082;5.066;2022-11-15T09:53:36;100621.53;;;11.67;100.00
65760;BME280;52496;51.082;5.066;2022-11-15T10:04:31;100604.06;;;12.06;96.89
65760;BME280;52496;51.082;5.066;2022-11-15T10:13:03;100598.19;;;12.44;92.83
65760;BME280;52496;51.082;5.066;2022-11-15T10:15:34;100605.00;;;12.53;93.60
65760;BME280;52496;51.082;5.066;2022-11-15T10:21:21;100585.25;;;12.74;91.85
65760;BME280;52496;51.082;5.066;2022-11-15T10:23:53;100586.91;;;12.81;87.67
65760;BME280;52496;51.082;5.066;2022-11-15T10:26:24;100581.13;;;12.84;87.94
65760;BME280;52496;51.082;5.066;2022-11-15T10:28:55;100577.63;;;12.91;87.42
65760;BME280;52496;51.082;5.066;2022-11-15T10:31:27;100569.56;;;13.04;87.11
65760;BME280;52496;51.082;5.066;2022-11-15T10:34:22;100573.91;;;13.18;88.14
65760;BME280;52496;51.082;5.066;2022-11-15T10:36:59;100563.34;;;13.23;85.65
65760;BME280;52496;51.082;5.066;2022-11-15T10:39:32;100565.84;;;13.18;84.88
65760;BME280;52496;51.082;5.066;2022-11-15T10:42:18;100551.78;;;13.16;85.50
65760;BME280;52496;51.082;5.066;2022-11-15T10:44:55;100545.19;;;13.19;85.18
65760;BME280;52496;51.082;5.066;2022-11-15T10:47:31;100542.72;;;13.24;85.40
65760;BME280;52496;51.082;5.066;2022-11-15T10:50:11;100540.66;;;13.26;84.73
65760;BME280;52496;51.082;5.066;2022-11-15T10:52:56;100529.28;;;13.24;84.08
65760;BME280;52496;51.082;5.066;2022-11-15T10:55:29;100529.47;;;13.22;85.31
65760;BME280;52496;51.082;5.066;2022-11-15T10:58:09;100517.53;;;13.18;84.40
65760;BME280;52496;51.082;5.066;2022-11-15T11:00:52;100508.84;;;13.16;84.78
65760;BME280;52496;51.082;5.066;2022-11-15T11:04:00;100502.66;;;13.16;84.83
65760;BME280;52496;51.082;5.066;2022-11-15T11:09:35;100492.94;;;13.08;84.73
65760;BME280;52496;51.082;5.066;2022-11-15T11:12:10;100486.75;;;13.07;84.19
65760;BME280;52496;51.082;5.066;2022-11-15T11:14:41;100471.66;;;13.13;85.02
65760;BME280;52496;51.082;5.066;2022-11-15T11:17:36;100472.06;;;13.17;83.53
65760;BME280;52496;51.082;5.066;2022-11-15T11:20:25;100461.72;;;13.20;83.47
65760;BME280;52496;51.082;5.066;2022-11-15T11:32:16;100440.41;;;13.39;83.19
65760;BME280;52496;51.082;5.066;2022-11-15T11:46:47;100409.16;;;13.51;79.69
65760;BME280;52496;51.082;5.066;2022-11-15T11:49:51;100401.31;;;13.56;81.01
65760;BME280;52496;51.082;5.066;2022-11-15T11:52:39;100388.44;;;13.65;78.10
65760;BME280;52496;51.082;5.066;2022-11-15T11:55:24;100389.69;;;13.62;78.70
65760;BME280;52496;51.082;5.066;2022-11-15T12:00:47;100384.56;;;13.54;78.01
65760;BME280;52496;51.082;5.066;2022-11-15T12:03:28;100385.69;;;13.40;78.25
65760;BME280;52496;51.082;5.066;2022-11-15T12:06:04;100386.75;;;13.32;80.81
65760;BME280;52496;51.082;5.066;2022-11-15T12:11:55;100373.13;;;13.20;80.40
65760;BME280;52496;51.082;5.066;2022-11-15T12:14:35;100370.00;;;13.23;80.99
65760;BME280;52496;51.082;5.066;2022-11-15T12:17:09;100354.56;;;13.25;81.92
65760;BME280;52496;51.082;5.066;2022-11-15T12:19:40;100355.75;;;13.29;81.43
65760;BME280;52496;51.082;5.066;2022-11-15T12:22:22;100352.66;;;13.32;79.28
65760;BME280;52496;51.082;5.066;2022-11-15T12:24:56;100340.28;;;13.31;80.55
65760;BME280;52496;51.082;5.066;2022-11-15T12:36:05;100318.16;;;13.36;81.05
65760;BME280;52496;51.082;5.066;2022-11-15T12:39:07;100304.31;;;13.32;80.64
65760;BME280;52496;51.082;5.066;2022-11-15T12:52:08;100277.66;;;13.38;82.78
65760;BME280;52496;51.082;5.066;2022-11-15T13:02:41;100269.91;;;13.48;82.26
65760;BME280;52496;51.082;5.066;2022-11-15T13:15:44;100250.53;;;13.46;83.46
65760;BME280;52496;51.082;5.066;2022-11-15T13:18:29;100235.44;;;13.45;82.97
65760;BME280;52496;51.082;5.066;2022-11-15T13:21:01;100238.75;;;13.47;83.87
65760;BME280;52496;51.082;5.066;2022-11-15T13:23:53;100230.25;;;13.50;84.58
65760;BME280;52496;51.082;5.066;2022-11-15T13:26:24;100229.81;;;13.53;84.57
65760;BME280;52496;51.082;5.066;2022-11-15T13:28:55;100220.13;;;13.52;84.65
65760;BME280;52496;51.082;5.066;2022-11-15T13:31:36;100224.44;;;13.53;85.23
65760;BME280;52496;51.082;5.066;2022-11-15T13:34:26;100213.69;;;13.53;85.18
65760;BME280;52496;51.082;5.066;2022-11-15T13:36:57;100213.25;;;13.56;85.70
65760;BME280;52496;51.082;5.066;2022-11-15T13:39:29;100207.44;;;13.59;85.49
65760;BME280;52496;51.082;5.066;2022-11-15T13:42:00;100192.97;;;13.60;84.90
65760;BME280;52496;51.082;5.066;2022-11-15T13:44:32;100197.91;;;13.63;85.66
65760;BME280;52496;51.082;5.066;2022-11-15T13:47:13;100185.06;;;13.65;86.50
65760;BME280;52496;51.082;5.066;2022-11-15T13:49:44;100180.31;;;13.67;86.19
65760;BME280;52496;51.082;5.066;2022-11-15T13:52:15;100177.19;;;13.70;85.88
65760;BME280;52496;51.082;5.066;2022-11-15T13:57:30;100166.63;;;13.69;86.67
65760;BME280;52496;51.082;5.066;2022-11-15T14:03:24;100158.19;;;13.65;87.49
65760;BME280;52496;51.082;5.066;2022-11-15T14:06:13;100144.16;;;13.63;86.80
65760;BME280;52496;51.082;5.066;2022-11-15T14:09:00;100141.72;;;13.62;86.42
65760;BME280;52496;51.082;5.066;2022-11-15T14:11:31;100131.16;;;13.60;87.49
65760;BME280;52496;51.082;5.066;2022-11-15T14:16:40;100120.66;;;13.59;87.41
65760;BME280;52496;51.082;5.066;2022-11-15T14:19:32;100117.16;;;13.58;88.11
65760;BME280;52496;51.082;5.066;2022-11-15T14:22:23;100105.34;;;13.59;88.14
65760;BME280;52496;51.082;5.066;2022-11-15T14:25:18;100100.22;;;13.58;87.42
65760;BME280;52496;51.082;5.066;2022-11-15T14:28:14;100099.63;;;13.56;87.87
65760;BME280;52496;51.082;5.066;2022-11-15T14:30:45;100097.75;;;13.56;88.24
65760;BME280;52496;51.082;5.066;2022-11-15T14:33:38;100090.13;;;13.53;88.79
65760;BME280;52496;51.082;5.066;2022-11-15T14:36:15;100091.19;;;13.52;88.57
65760;BME280;52496;51.082;5.066;2022-11-15T14:38:47;100088.72;;;13.50;88.86
65760;BME280;52496;51.082;5.066;2022-11-15T14:41:23;100075.72;;;13.47;89.00
65760;BME280;52496;51.082;5.066;2022-11-15T14:43:54;100075.97;;;13.46;89.76
65760;BME280;52496;51.082;5.066;2022-11-15T14:46:24;100076.97;;;13.45;89.03
65760;BME280;52496;51.082;5.066;2022-11-15T14:48:55;100067.09;;;13.45;89.42
65760;BME280;52496;51.082;5.066;2022-11-15T14:51:26;100069.97;;;13.44;90.09
65760;BME280;52496;51.082;5.066;2022-11-15T14:53:57;100070.41;;;13.41;90.46
65760;BME280;52496;51.082;5.066;2022-11-15T14:56:28;100074.97;;;13.40;90.79
65760;BME280;52496;51.082;5.066;2022-11-15T14:58:58;100069.81;;;13.39;90.26
65760;BME280;52496;51.082;5.066;2022-11-15T15:01:29;100056.81;;;13.36;90.80
65760;BME280;52496;51.082;5.066;2022-11-15T15:04:00;100065.94;;;13.35;90.80
65760;BME280;52496;51.082;5.066;2022-11-15T15:06:30;100069.69;;;13.34;90.97
65760;BME280;52496;51.082;5.066;2022-11-15T15:09:01;100064.75;;;13.30;92.35
65760;BME280;52496;51.082;5.066;2022-11-15T15:11:32;100067.25;;;13.25;94.34
65760;BME280;52496;51.082;5.066;2022-11-15T15:14:02;100065.22;;;13.21;94.92
65760;BME280;52496;51.082;5.066;2022-11-15T15:16:33;100070.63;;;13.14;95.40
65760;BME280;52496;51.082;5.066;2022-11-15T15:19:03;100068.38;;;13.11;97.15
65760;BME280;52496;51.082;5.066;2022-11-15T15:21:34;100066.56;;;13.05;97.86
65760;BME280;52496;51.082;5.066;2022-11-15T15:24:05;100069.94;;;13.00;100.00
65760;BME280;52496;51.082;5.066;2022-11-15T15:26:36;100065.88;;;12.91;100.00
65760;BME280;52496;51.082;5.066;2022-11-15T15:29:08;100065.09;;;12.84;100.00
65760;BME280;52496;51.082;5.066;2022-11-15T15:31:39;100069.94;;;12.75;100.00